This is the latest recevied weather packets stored in our database for station/object N2MLB-WX. If no packets are shown the sender has not sent any weather packets the latest 10 day(s).
| Time | Temp. | Humidity | Pressure | Rain* | Wind** | Luminosity | Snow |
|---|---|---|---|---|---|---|---|
| 1777755439 | 6.11° C | 64% | 1011 hPa | 0 mm | - | 25 W/m² | - |
| 1777755139 | 6.11° C | 62% | 1011 hPa | 0 mm | - | 23 W/m² | - |
| 1777754841 | 6.67° C | 64% | 1011 hPa | 0 mm | - | 23 W/m² | - |
| 1777754539 | 6.67° C | 63% | 1011 hPa | 0 mm | - | 28 W/m² | - |
| 1777754239 | 6.67° C | 62% | 1011 hPa | 0 mm | - | 33 W/m² | - |
| 1777753940 | 6.67° C | 59% | 1011 hPa | 0 mm | - | 35 W/m² | - |
| 1777753640 | 6.67° C | 64% | 1011 hPa | 0 mm | - | 36 W/m² | - |
| 1777753339 | 6.67° C | 61% | 1011 hPa | 0 mm | - | 33 W/m² | - |
| 1777752739 | 6.67° C | 59% | 1011 hPa | 0 mm | - | 37 W/m² | - |
| 1777752440 | 6.67° C | 59% | 1011 hPa | 0 mm | - | 44 W/m² | - |
| 1777752140 | 7.22° C | 59% | 1011 hPa | 0 mm | - | 53 W/m² | - |
| 1777751839 | 7.22° C | 56% | 1011 hPa | 0 mm | - | 56 W/m² | - |
| 1777751540 | 7.78° C | 59% | 1011 hPa | 0 mm | - | 60 W/m² | - |
| 1777751240 | 8.33° C | 56% | 1011 hPa | 0 mm | - | 67 W/m² | - |
| 1777750940 | 8.33° C | 54% | 1011 hPa | 0 mm | - | 74 W/m² | - |
| 1777750640 | 8.33° C | 54% | 1011 hPa | 0 mm | - | 83 W/m² | - |
| 1777750339 | 8.89° C | 52% | 1011 hPa | 0 mm | - | 99 W/m² | - |
| 1777750039 | 10° C | 54% | 1011 hPa | 0 mm | - | 149 W/m² | - |
| 1777749739 | 7.78° C | 56% | 1011 hPa | 0 mm | - | 78 W/m² | - |
| 1777749439 | 7.78° C | 53% | 1011 hPa | 0 mm | - | 69 W/m² | - |
| 1777749139 | 7.78° C | 57% | 1011 hPa | 0 mm | - | 72 W/m² | - |
| 1777748840 | 7.78° C | 51% | 1011 hPa | 0 mm | - | 72 W/m² | - |
| 1777748540 | 8.33° C | 53% | 1011 hPa | 0 mm | - | 73 W/m² | - |
| 1777748239 | 8.33° C | 57% | 1011 hPa | 0 mm | - | 69 W/m² | - |
| 1777747939 | 8.33° C | 55% | 1011 hPa | 0 mm | - | 77 W/m² | - |
* Rain latest hour (hover to see other rain measurements)
** Current wind speed in m/s (hover to see current wind gust speed)